sensor_id;sensor_type;location;lat;lon;timestamp;P1;durP1;ratioP1;P2;durP2;ratioP2
2019;SDS011;1014;51.960;8.542;2023-01-29T00:01:49;44.30;;;40.00;;
2019;SDS011;1014;51.960;8.542;2023-01-29T00:04:16;43.33;;;38.92;;
2019;SDS011;1014;51.960;8.542;2023-01-29T00:06:43;43.50;;;39.40;;
2019;SDS011;1014;51.960;8.542;2023-01-29T00:09:10;42.65;;;38.78;;
2019;SDS011;1014;51.960;8.542;2023-01-29T00:11:39;44.58;;;40.35;;
2019;SDS011;1014;51.960;8.542;2023-01-29T00:14:06;44.72;;;40.35;;
2019;SDS011;1014;51.960;8.542;2023-01-29T00:16:33;43.17;;;39.10;;
2019;SDS011;1014;51.960;8.542;2023-01-29T00:19:00;43.35;;;39.03;;
2019;SDS011;1014;51.960;8.542;2023-01-29T00:21:27;43.92;;;39.42;;
2019;SDS011;1014;51.960;8.542;2023-01-29T00:23:56;43.75;;;39.50;;
2019;SDS011;1014;51.960;8.542;2023-01-29T00:26:23;43.28;;;38.78;;
2019;SDS011;1014;51.960;8.542;2023-01-29T00:28:51;43.15;;;38.95;;
2019;SDS011;1014;51.960;8.542;2023-01-29T00:31:18;43.13;;;38.85;;
2019;SDS011;1014;51.960;8.542;2023-01-29T00:33:46;45.60;;;40.97;;
2019;SDS011;1014;51.960;8.542;2023-01-29T00:36:13;44.80;;;40.53;;
2019;SDS011;1014;51.960;8.542;2023-01-29T00:38:41;43.38;;;39.30;;
2019;SDS011;1014;51.960;8.542;2023-01-29T00:41:08;42.97;;;38.00;;
2019;SDS011;1014;51.960;8.542;2023-01-29T00:43:55;45.92;;;41.20;;
2019;SDS011;1014;51.960;8.542;2023-01-29T00:46:40;42.88;;;38.67;;
2019;SDS011;1014;51.960;8.542;2023-01-29T00:49:07;44.58;;;40.00;;
2019;SDS011;1014;51.960;8.542;2023-01-29T00:51:35;44.72;;;39.90;;
2019;SDS011;1014;51.960;8.542;2023-01-29T00:54:02;43.72;;;39.40;;
2019;SDS011;1014;51.960;8.542;2023-01-29T00:56:31;42.72;;;38.42;;
2019;SDS011;1014;51.960;8.542;2023-01-29T00:58:59;43.35;;;39.15;;
2019;SDS011;1014;51.960;8.542;2023-01-29T01:01:26;43.67;;;39.47;;
2019;SDS011;1014;51.960;8.542;2023-01-29T01:04:11;46.60;;;40.45;;
2019;SDS011;1014;51.960;8.542;2023-01-29T01:06:39;41.88;;;37.83;;
2019;SDS011;1014;51.960;8.542;2023-01-29T01:09:07;43.65;;;39.38;;
2019;SDS011;1014;51.960;8.542;2023-01-29T01:11:52;44.13;;;39.75;;
2019;SDS011;1014;51.960;8.542;2023-01-29T01:14:20;44.08;;;39.75;;
2019;SDS011;1014;51.960;8.542;2023-01-29T01:16:47;43.85;;;39.47;;
2019;SDS011;1014;51.960;8.542;2023-01-29T01:19:15;42.47;;;38.25;;
2019;SDS011;1014;51.960;8.542;2023-01-29T01:21:42;46.20;;;41.40;;
2019;SDS011;1014;51.960;8.542;2023-01-29T01:24:12;43.90;;;39.00;;
2019;SDS011;1014;51.960;8.542;2023-01-29T01:26:39;43.15;;;38.75;;
2019;SDS011;1014;51.960;8.542;2023-01-29T01:29:06;42.97;;;38.38;;
2019;SDS011;1014;51.960;8.542;2023-01-29T01:31:34;43.58;;;39.10;;
2019;SDS011;1014;51.960;8.542;2023-01-29T01:34:01;42.35;;;38.13;;
2019;SDS011;1014;51.960;8.542;2023-01-29T01:36:28;43.65;;;39.00;;
2019;SDS011;1014;51.960;8.542;2023-01-29T01:38:56;43.78;;;39.20;;
2019;SDS011;1014;51.960;8.542;2023-01-29T01:41:23;44.85;;;40.08;;
2019;SDS011;1014;51.960;8.542;2023-01-29T01:43:51;42.47;;;38.10;;
2019;SDS011;1014;51.960;8.542;2023-01-29T01:46:19;41.20;;;36.80;;
2019;SDS011;1014;51.960;8.542;2023-01-29T01:48:49;43.00;;;38.33;;
2019;SDS011;1014;51.960;8.542;2023-01-29T01:51:17;44.45;;;39.60;;
2019;SDS011;1014;51.960;8.542;2023-01-29T01:53:47;46.67;;;41.80;;
2019;SDS011;1014;51.960;8.542;2023-01-29T01:56:17;40.17;;;36.30;;
2019;SDS011;1014;51.960;8.542;2023-01-29T01:58:46;42.00;;;37.70;;
2019;SDS011;1014;51.960;8.542;2023-01-29T02:01:15;41.97;;;37.88;;
2019;SDS011;1014;51.960;8.542;2023-01-29T02:03:45;44.28;;;39.72;;
2019;SDS011;1014;51.960;8.542;2023-01-29T02:06:33;43.67;;;38.92;;
2019;SDS011;1014;51.960;8.542;2023-01-29T02:09:19;41.08;;;36.72;;
2019;SDS011;1014;51.960;8.542;2023-01-29T02:11:57;43.58;;;39.17;;
2019;SDS011;1014;51.960;8.542;2023-01-29T02:14:25;42.80;;;38.35;;
2019;SDS011;1014;51.960;8.542;2023-01-29T02:16:52;43.13;;;39.08;;
2019;SDS011;1014;51.960;8.542;2023-01-29T02:19:20;44.15;;;39.25;;
2019;SDS011;1014;51.960;8.542;2023-01-29T02:21:59;43.60;;;39.30;;
2019;SDS011;1014;51.960;8.542;2023-01-29T02:24:36;42.97;;;38.75;;
2019;SDS011;1014;51.960;8.542;2023-01-29T02:27:08;43.15;;;38.55;;
2019;SDS011;1014;51.960;8.542;2023-01-29T02:29:39;43.58;;;39.10;;
2019;SDS011;1014;51.960;8.542;2023-01-29T02:32:15;43.40;;;38.80;;
2019;SDS011;1014;51.960;8.542;2023-01-29T02:34:46;41.72;;;37.30;;
2019;SDS011;1014;51.960;8.542;2023-01-29T02:37:32;42.80;;;38.22;;
2019;SDS011;1014;51.960;8.542;2023-01-29T02:40:04;43.63;;;39.00;;
2019;SDS011;1014;51.960;8.542;2023-01-29T02:42:35;45.53;;;39.83;;
2019;SDS011;1014;51.960;8.542;2023-01-29T02:45:07;43.17;;;38.72;;
2019;SDS011;1014;51.960;8.542;2023-01-29T02:47:36;42.47;;;37.83;;
2019;SDS011;1014;51.960;8.542;2023-01-29T02:50:07;43.00;;;38.60;;
2019;SDS011;1014;51.960;8.542;2023-01-29T02:52:39;43.58;;;38.97;;
2019;SDS011;1014;51.960;8.542;2023-01-29T02:55:08;44.03;;;39.35;;
2019;SDS011;1014;51.960;8.542;2023-01-29T02:57:38;42.75;;;38.33;;
2019;SDS011;1014;51.960;8.542;2023-01-29T03:00:09;43.47;;;38.40;;
2019;SDS011;1014;51.960;8.542;2023-01-29T03:02:39;46.38;;;40.13;;
2019;SDS011;1014;51.960;8.542;2023-01-29T03:05:09;43.65;;;39.05;;
2019;SDS011;1014;51.960;8.542;2023-01-29T03:07:37;46.13;;;41.13;;
2019;SDS011;1014;51.960;8.542;2023-01-29T03:10:08;44.28;;;39.47;;
2019;SDS011;1014;51.960;8.542;2023-01-29T03:12:35;44.03;;;39.40;;
2019;SDS011;1014;51.960;8.542;2023-01-29T03:15:05;44.95;;;38.00;;
2019;SDS011;1014;51.960;8.542;2023-01-29T03:17:39;42.45;;;38.10;;
2019;SDS011;1014;51.960;8.542;2023-01-29T03:20:08;43.20;;;38.70;;
2019;SDS011;1014;51.960;8.542;2023-01-29T03:22:38;42.53;;;38.05;;
2019;SDS011;1014;51.960;8.542;2023-01-29T03:25:06;43.95;;;38.85;;
2019;SDS011;1014;51.960;8.542;2023-01-29T03:27:52;41.95;;;37.17;;
2019;SDS011;1014;51.960;8.542;2023-01-29T03:30:40;42.85;;;38.35;;
2019;SDS011;1014;51.960;8.542;2023-01-29T03:33:26;40.90;;;36.70;;
2019;SDS011;1014;51.960;8.542;2023-01-29T03:35:58;42.92;;;38.53;;
2019;SDS011;1014;51.960;8.542;2023-01-29T03:38:27;43.22;;;38.63;;
2019;SDS011;1014;51.960;8.542;2023-01-29T03:40:56;45.42;;;38.53;;
2019;SDS011;1014;51.960;8.542;2023-01-29T03:43:25;43.55;;;38.85;;
2019;SDS011;1014;51.960;8.542;2023-01-29T03:45:58;43.30;;;38.90;;
2019;SDS011;1014;51.960;8.542;2023-01-29T03:48:30;44.63;;;39.95;;
2019;SDS011;1014;51.960;8.542;2023-01-29T03:51:00;43.72;;;39.00;;
2019;SDS011;1014;51.960;8.542;2023-01-29T03:53:29;46.85;;;39.03;;
2019;SDS011;1014;51.960;8.542;2023-01-29T03:55:58;42.70;;;38.33;;
2019;SDS011;1014;51.960;8.542;2023-01-29T03:58:28;44.05;;;39.35;;
2019;SDS011;1014;51.960;8.542;2023-01-29T04:00:59;44.63;;;38.95;;
2019;SDS011;1014;51.960;8.542;2023-01-29T04:03:30;43.40;;;39.00;;
2019;SDS011;1014;51.960;8.542;2023-01-29T04:06:01;45.65;;;40.42;;
2019;SDS011;1014;51.960;8.542;2023-01-29T04:08:34;42.45;;;38.05;;
2019;SDS011;1014;51.960;8.542;2023-01-29T04:11:04;41.53;;;37.03;;
2019;SDS011;1014;51.960;8.542;2023-01-29T04:13:32;43.25;;;38.65;;
2019;SDS011;1014;51.960;8.542;2023-01-29T04:16:00;44.33;;;39.50;;
2019;SDS011;1014;51.960;8.542;2023-01-29T04:18:27;44.28;;;39.50;;
2019;SDS011;1014;51.960;8.542;2023-01-29T04:20:56;43.05;;;38.47;;
2019;SDS011;1014;51.960;8.542;2023-01-29T04:23:24;42.47;;;37.83;;
2019;SDS011;1014;51.960;8.542;2023-01-29T04:26:01;42.08;;;37.47;;
2019;SDS011;1014;51.960;8.542;2023-01-29T04:28:39;41.15;;;36.75;;
2019;SDS011;1014;51.960;8.542;2023-01-29T04:31:10;42.33;;;37.88;;
2019;SDS011;1014;51.960;8.542;2023-01-29T04:33:38;43.17;;;37.15;;
2019;SDS011;1014;51.960;8.542;2023-01-29T04:36:16;43.90;;;39.10;;
2019;SDS011;1014;51.960;8.542;2023-01-29T04:38:48;41.50;;;35.90;;
2019;SDS011;1014;51.960;8.542;2023-01-29T04:41:19;44.20;;;38.45;;
2019;SDS011;1014;51.960;8.542;2023-01-29T04:43:51;47.15;;;39.05;;
2019;SDS011;1014;51.960;8.542;2023-01-29T04:46:25;42.47;;;37.60;;
2019;SDS011;1014;51.960;8.542;2023-01-29T04:48:58;41.90;;;36.28;;
2019;SDS011;1014;51.960;8.542;2023-01-29T04:51:31;44.55;;;39.05;;
2019;SDS011;1014;51.960;8.542;2023-01-29T04:54:01;43.70;;;38.92;;
2019;SDS011;1014;51.960;8.542;2023-01-29T04:56:34;48.83;;;39.90;;
2019;SDS011;1014;51.960;8.542;2023-01-29T04:59:05;42.42;;;37.05;;
2019;SDS011;1014;51.960;8.542;2023-01-29T05:01:33;42.55;;;37.95;;
2019;SDS011;1014;51.960;8.542;2023-01-29T05:04:02;44.78;;;38.92;;
2019;SDS011;1014;51.960;8.542;2023-01-29T05:06:32;43.00;;;35.33;;
2019;SDS011;1014;51.960;8.542;2023-01-29T05:09:01;43.63;;;38.15;;
2019;SDS011;1014;51.960;8.542;2023-01-29T05:11:29;46.97;;;38.85;;
2019;SDS011;1014;51.960;8.542;2023-01-29T05:13:56;43.85;;;37.10;;
2019;SDS011;1014;51.960;8.542;2023-01-29T05:16:24;42.80;;;38.13;;
2019;SDS011;1014;51.960;8.542;2023-01-29T05:18:52;47.03;;;40.65;;
2019;SDS011;1014;51.960;8.542;2023-01-29T05:21:19;44.83;;;38.22;;
2019;SDS011;1014;51.960;8.542;2023-01-29T05:24:08;49.25;;;40.75;;
2019;SDS011;1014;51.960;8.542;2023-01-29T05:26:36;52.83;;;43.15;;
2019;SDS011;1014;51.960;8.542;2023-01-29T05:29:21;42.58;;;37.38;;
2019;SDS011;1014;51.960;8.542;2023-01-29T05:31:48;48.38;;;40.05;;
2019;SDS011;1014;51.960;8.542;2023-01-29T05:34:15;46.67;;;38.53;;
2019;SDS011;1014;51.960;8.542;2023-01-29T05:36:42;44.45;;;39.65;;
2019;SDS011;1014;51.960;8.542;2023-01-29T05:39:11;44.40;;;37.67;;
2019;SDS011;1014;51.960;8.542;2023-01-29T05:41:38;43.35;;;38.55;;
2019;SDS011;1014;51.960;8.542;2023-01-29T05:44:05;50.13;;;37.70;;
2019;SDS011;1014;51.960;8.542;2023-01-29T05:46:32;41.30;;;36.80;;
2019;SDS011;1014;51.960;8.542;2023-01-29T05:48:59;50.72;;;37.08;;
2019;SDS011;1014;51.960;8.542;2023-01-29T05:51:26;47.13;;;38.72;;
2019;SDS011;1014;51.960;8.542;2023-01-29T05:53:53;45.92;;;39.22;;
2019;SDS011;1014;51.960;8.542;2023-01-29T05:56:21;48.15;;;39.35;;
2019;SDS011;1014;51.960;8.542;2023-01-29T05:58:49;45.53;;;38.35;;
2019;SDS011;1014;51.960;8.542;2023-01-29T06:01:17;44.85;;;37.80;;
2019;SDS011;1014;51.960;8.542;2023-01-29T06:03:44;44.15;;;37.30;;
2019;SDS011;1014;51.960;8.542;2023-01-29T06:06:12;45.90;;;40.13;;
2019;SDS011;1014;51.960;8.542;2023-01-29T06:08:39;45.15;;;39.20;;
2019;SDS011;1014;51.960;8.542;2023-01-29T06:11:06;47.50;;;40.38;;
2019;SDS011;1014;51.960;8.542;2023-01-29T06:13:35;43.17;;;38.30;;
2019;SDS011;1014;51.960;8.542;2023-01-29T06:16:03;48.08;;;40.10;;
2019;SDS011;1014;51.960;8.542;2023-01-29T06:18:31;46.03;;;37.60;;
2019;SDS011;1014;51.960;8.542;2023-01-29T06:20:59;47.75;;;42.67;;
2019;SDS011;1014;51.960;8.542;2023-01-29T06:23:26;47.40;;;40.80;;
2019;SDS011;1014;51.960;8.542;2023-01-29T06:25:53;49.13;;;40.15;;
2019;SDS011;1014;51.960;8.542;2023-01-29T06:28:20;49.20;;;41.08;;
2019;SDS011;1014;51.960;8.542;2023-01-29T06:30:48;45.10;;;38.40;;
2019;SDS011;1014;51.960;8.542;2023-01-29T06:33:15;49.22;;;40.50;;
2019;SDS011;1014;51.960;8.542;2023-01-29T06:35:42;44.60;;;39.83;;
2019;SDS011;1014;51.960;8.542;2023-01-29T06:38:09;48.90;;;40.90;;
2019;SDS011;1014;51.960;8.542;2023-01-29T06:40:37;51.42;;;41.03;;
2019;SDS011;1014;51.960;8.542;2023-01-29T06:43:04;49.45;;;40.80;;
2019;SDS011;1014;51.960;8.542;2023-01-29T06:45:31;49.65;;;43.45;;
2019;SDS011;1014;51.960;8.542;2023-01-29T06:47:59;46.65;;;39.83;;
2019;SDS011;1014;51.960;8.542;2023-01-29T06:50:26;42.50;;;37.95;;
2019;SDS011;1014;51.960;8.542;2023-01-29T06:52:53;49.78;;;40.33;;
2019;SDS011;1014;51.960;8.542;2023-01-29T06:55:21;46.03;;;39.53;;
2019;SDS011;1014;51.960;8.542;2023-01-29T06:57:48;52.20;;;42.00;;
2019;SDS011;1014;51.960;8.542;2023-01-29T07:00:15;54.13;;;42.45;;
2019;SDS011;1014;51.960;8.542;2023-01-29T07:02:42;50.47;;;42.25;;
2019;SDS011;1014;51.960;8.542;2023-01-29T07:05:10;46.15;;;38.35;;
2019;SDS011;1014;51.960;8.542;2023-01-29T07:07:37;50.03;;;41.35;;
2019;SDS011;1014;51.960;8.542;2023-01-29T07:10:05;45.17;;;38.95;;
2019;SDS011;1014;51.960;8.542;2023-01-29T07:12:32;49.83;;;40.53;;
2019;SDS011;1014;51.960;8.542;2023-01-29T07:14:59;48.72;;;39.88;;
2019;SDS011;1014;51.960;8.542;2023-01-29T07:17:26;49.72;;;40.33;;
2019;SDS011;1014;51.960;8.542;2023-01-29T07:19:53;47.60;;;40.17;;
2019;SDS011;1014;51.960;8.542;2023-01-29T07:22:21;46.13;;;38.15;;
2019;SDS011;1014;51.960;8.542;2023-01-29T07:24:49;56.00;;;41.42;;
2019;SDS011;1014;51.960;8.542;2023-01-29T07:27:16;47.72;;;40.15;;
2019;SDS011;1014;51.960;8.542;2023-01-29T07:29:43;56.13;;;41.50;;
2019;SDS011;1014;51.960;8.542;2023-01-29T07:32:10;50.70;;;42.40;;
2019;SDS011;1014;51.960;8.542;2023-01-29T07:34:38;50.22;;;41.55;;
2019;SDS011;1014;51.960;8.542;2023-01-29T07:37:05;52.35;;;41.45;;
2019;SDS011;1014;51.960;8.542;2023-01-29T07:39:33;53.15;;;41.47;;
2019;SDS011;1014;51.960;8.542;2023-01-29T07:42:00;46.58;;;39.97;;
2019;SDS011;1014;51.960;8.542;2023-01-29T07:44:27;42.80;;;37.97;;
2019;SDS011;1014;51.960;8.542;2023-01-29T07:46:54;48.33;;;39.90;;
2019;SDS011;1014;51.960;8.542;2023-01-29T07:49:21;49.38;;;41.50;;
2019;SDS011;1014;51.960;8.542;2023-01-29T07:51:48;58.85;;;44.70;;
2019;SDS011;1014;51.960;8.542;2023-01-29T07:54:15;57.75;;;43.50;;
2019;SDS011;1014;51.960;8.542;2023-01-29T07:56:43;53.53;;;40.33;;
2019;SDS011;1014;51.960;8.542;2023-01-29T07:59:10;48.00;;;40.60;;
2019;SDS011;1014;51.960;8.542;2023-01-29T08:01:37;57.15;;;41.10;;
2019;SDS011;1014;51.960;8.542;2023-01-29T08:04:04;48.08;;;40.78;;
2019;SDS011;1014;51.960;8.542;2023-01-29T08:06:31;51.08;;;42.00;;
2019;SDS011;1014;51.960;8.542;2023-01-29T08:08:58;54.28;;;43.45;;
2019;SDS011;1014;51.960;8.542;2023-01-29T08:11:25;50.83;;;42.70;;
2019;SDS011;1014;51.960;8.542;2023-01-29T08:13:54;52.58;;;42.03;;
2019;SDS011;1014;51.960;8.542;2023-01-29T08:16:21;70.25;;;49.28;;
2019;SDS011;1014;51.960;8.542;2023-01-29T08:18:48;72.20;;;47.72;;
2019;SDS011;1014;51.960;8.542;2023-01-29T08:21:15;56.10;;;43.22;;
2019;SDS011;1014;51.960;8.542;2023-01-29T08:23:42;45.05;;;38.50;;
2019;SDS011;1014;51.960;8.542;2023-01-29T08:26:09;49.13;;;40.95;;
2019;SDS011;1014;51.960;8.542;2023-01-29T08:28:36;51.15;;;42.22;;
2019;SDS011;1014;51.960;8.542;2023-01-29T08:31:11;56.80;;;42.95;;
2019;SDS011;1014;51.960;8.542;2023-01-29T08:33:38;54.58;;;41.45;;
2019;SDS011;1014;51.960;8.542;2023-01-29T08:36:05;56.78;;;44.17;;
2019;SDS011;1014;51.960;8.542;2023-01-29T08:38:33;57.20;;;43.78;;
2019;SDS011;1014;51.960;8.542;2023-01-29T08:41:00;55.85;;;45.80;;
2019;SDS011;1014;51.960;8.542;2023-01-29T08:43:27;56.75;;;46.55;;
2019;SDS011;1014;51.960;8.542;2023-01-29T08:45:54;55.70;;;44.78;;
2019;SDS011;1014;51.960;8.542;2023-01-29T08:48:22;57.58;;;43.63;;
2019;SDS011;1014;51.960;8.542;2023-01-29T08:50:50;56.38;;;45.95;;
2019;SDS011;1014;51.960;8.542;2023-01-29T08:53:17;52.92;;;42.75;;
2019;SDS011;1014;51.960;8.542;2023-01-29T08:55:48;55.53;;;44.30;;
2019;SDS011;1014;51.960;8.542;2023-01-29T08:58:15;54.63;;;45.25;;
2019;SDS011;1014;51.960;8.542;2023-01-29T09:00:42;55.17;;;44.17;;
2019;SDS011;1014;51.960;8.542;2023-01-29T09:03:09;61.65;;;45.38;;
2019;SDS011;1014;51.960;8.542;2023-01-29T09:05:37;54.95;;;43.17;;
2019;SDS011;1014;51.960;8.542;2023-01-29T09:08:05;54.05;;;42.55;;
2019;SDS011;1014;51.960;8.542;2023-01-29T09:10:32;56.72;;;43.83;;
2019;SDS011;1014;51.960;8.542;2023-01-29T09:13:00;53.15;;;42.95;;
2019;SDS011;1014;51.960;8.542;2023-01-29T09:15:27;55.38;;;45.38;;
2019;SDS011;1014;51.960;8.542;2023-01-29T09:17:54;52.50;;;43.33;;
2019;SDS011;1014;51.960;8.542;2023-01-29T09:20:21;58.65;;;43.40;;
2019;SDS011;1014;51.960;8.542;2023-01-29T09:22:49;55.92;;;43.15;;
2019;SDS011;1014;51.960;8.542;2023-01-29T09:25:17;54.88;;;44.22;;
2019;SDS011;1014;51.960;8.542;2023-01-29T09:27:44;53.65;;;44.35;;
2019;SDS011;1014;51.960;8.542;2023-01-29T09:30:12;58.65;;;44.05;;
2019;SDS011;1014;51.960;8.542;2023-01-29T09:32:39;54.55;;;42.70;;
2019;SDS011;1014;51.960;8.542;2023-01-29T09:35:06;51.53;;;41.97;;
2019;SDS011;1014;51.960;8.542;2023-01-29T09:37:33;59.45;;;44.40;;
2019;SDS011;1014;51.960;8.542;2023-01-29T09:40:02;53.13;;;42.90;;
2019;SDS011;1014;51.960;8.542;2023-01-29T09:42:30;50.05;;;43.42;;
2019;SDS011;1014;51.960;8.542;2023-01-29T09:45:01;55.72;;;46.17;;
2019;SDS011;1014;51.960;8.542;2023-01-29T09:47:29;54.78;;;43.33;;
2019;SDS011;1014;51.960;8.542;2023-01-29T09:49:58;51.22;;;42.60;;
2019;SDS011;1014;51.960;8.542;2023-01-29T09:52:27;53.55;;;45.33;;
2019;SDS011;1014;51.960;8.542;2023-01-29T09:54:56;55.25;;;46.30;;
2019;SDS011;1014;51.960;8.542;2023-01-29T09:57:28;57.00;;;44.08;;
2019;SDS011;1014;51.960;8.542;2023-01-29T09:59:57;53.75;;;45.67;;
2019;SDS011;1014;51.960;8.542;2023-01-29T10:02:35;60.33;;;46.50;;
2019;SDS011;1014;51.960;8.542;2023-01-29T10:05:13;45.40;;;38.85;;
2019;SDS011;1014;51.960;8.542;2023-01-29T10:08:04;39.22;;;35.22;;
2019;SDS011;1014;51.960;8.542;2023-01-29T10:10:40;51.67;;;43.17;;
2019;SDS011;1014;51.960;8.542;2023-01-29T10:13:14;53.35;;;43.97;;
2019;SDS011;1014;51.960;8.542;2023-01-29T10:15:48;53.28;;;42.40;;
2019;SDS011;1014;51.960;8.542;2023-01-29T10:18:32;46.10;;;40.40;;
2019;SDS011;1014;51.960;8.542;2023-01-29T10:21:04;53.90;;;42.78;;
2019;SDS011;1014;51.960;8.542;2023-01-29T10:23:35;52.95;;;38.95;;
2019;SDS011;1014;51.960;8.542;2023-01-29T10:26:03;47.67;;;42.55;;
2019;SDS011;1014;51.960;8.542;2023-01-29T10:28:32;51.90;;;43.17;;
2019;SDS011;1014;51.960;8.542;2023-01-29T10:31:02;51.63;;;44.15;;
2019;SDS011;1014;51.960;8.542;2023-01-29T10:33:31;51.05;;;39.70;;
2019;SDS011;1014;51.960;8.542;2023-01-29T10:36:00;47.53;;;39.08;;
2019;SDS011;1014;51.960;8.542;2023-01-29T10:38:30;52.22;;;38.17;;
2019;SDS011;1014;51.960;8.542;2023-01-29T10:41:02;50.72;;;41.85;;
2019;SDS011;1014;51.960;8.542;2023-01-29T10:43:35;51.33;;;39.40;;
2019;SDS011;1014;51.960;8.542;2023-01-29T10:46:07;33.70;;;29.58;;
2019;SDS011;1014;51.960;8.542;2023-01-29T10:48:39;36.13;;;32.38;;
2019;SDS011;1014;51.960;8.542;2023-01-29T10:51:10;50.10;;;40.70;;
2019;SDS011;1014;51.960;8.542;2023-01-29T10:53:44;42.90;;;36.33;;
2019;SDS011;1014;51.960;8.542;2023-01-29T10:56:20;55.55;;;42.10;;
2019;SDS011;1014;51.960;8.542;2023-01-29T10:58:53;51.97;;;44.05;;
2019;SDS011;1014;51.960;8.542;2023-01-29T11:01:21;48.13;;;39.72;;
2019;SDS011;1014;51.960;8.542;2023-01-29T11:03:53;51.15;;;43.85;;
2019;SDS011;1014;51.960;8.542;2023-01-29T11:06:22;42.88;;;37.50;;
2019;SDS011;1014;51.960;8.542;2023-01-29T11:08:51;59.70;;;44.28;;
2019;SDS011;1014;51.960;8.542;2023-01-29T11:11:19;37.15;;;33.50;;
2019;SDS011;1014;51.960;8.542;2023-01-29T11:13:48;51.20;;;41.63;;
2019;SDS011;1014;51.960;8.542;2023-01-29T11:16:19;50.97;;;43.95;;
2019;SDS011;1014;51.960;8.542;2023-01-29T11:18:53;49.65;;;42.10;;
2019;SDS011;1014;51.960;8.542;2023-01-29T11:21:20;51.83;;;41.38;;
2019;SDS011;1014;51.960;8.542;2023-01-29T11:23:48;41.45;;;37.10;;
2019;SDS011;1014;51.960;8.542;2023-01-29T11:26:17;36.33;;;32.58;;
2019;SDS011;1014;51.960;8.542;2023-01-29T11:28:46;49.50;;;39.92;;
2019;SDS011;1014;51.960;8.542;2023-01-29T11:31:14;56.97;;;45.28;;
2019;SDS011;1014;51.960;8.542;2023-01-29T11:33:43;48.63;;;39.35;;
2019;SDS011;1014;51.960;8.542;2023-01-29T11:36:20;42.72;;;38.22;;
2019;SDS011;1014;51.960;8.542;2023-01-29T11:38:55;37.00;;;33.08;;
2019;SDS011;1014;51.960;8.542;2023-01-29T11:41:30;44.08;;;37.75;;
2019;SDS011;1014;51.960;8.542;2023-01-29T11:44:16;43.03;;;38.33;;
2019;SDS011;1014;51.960;8.542;2023-01-29T11:46:42;41.25;;;36.67;;
2019;SDS011;1014;51.960;8.542;2023-01-29T11:49:13;49.63;;;41.53;;
2019;SDS011;1014;51.960;8.542;2023-01-29T11:51:49;45.28;;;39.75;;
2019;SDS011;1014;51.960;8.542;2023-01-29T11:54:17;45.63;;;36.97;;
2019;SDS011;1014;51.960;8.542;2023-01-29T11:56:45;46.10;;;37.38;;
2019;SDS011;1014;51.960;8.542;2023-01-29T11:59:19;41.05;;;34.45;;
2019;SDS011;1014;51.960;8.542;2023-01-29T12:01:51;51.20;;;41.53;;
2019;SDS011;1014;51.960;8.542;2023-01-29T12:04:21;49.97;;;40.45;;
2019;SDS011;1014;51.960;8.542;2023-01-29T12:06:49;47.92;;;40.47;;
2019;SDS011;1014;51.960;8.542;2023-01-29T12:09:18;40.75;;;35.28;;
2019;SDS011;1014;51.960;8.542;2023-01-29T12:11:45;37.75;;;33.72;;
2019;SDS011;1014;51.960;8.542;2023-01-29T12:14:23;39.60;;;33.55;;
2019;SDS011;1014;51.960;8.542;2023-01-29T12:16:53;44.67;;;38.72;;
2019;SDS011;1014;51.960;8.542;2023-01-29T12:19:24;47.47;;;38.38;;
2019;SDS011;1014;51.960;8.542;2023-01-29T12:21:52;42.97;;;36.30;;
2019;SDS011;1014;51.960;8.542;2023-01-29T12:24:24;45.83;;;35.95;;
2019;SDS011;1014;51.960;8.542;2023-01-29T12:26:57;44.13;;;38.47;;
2019;SDS011;1014;51.960;8.542;2023-01-29T12:29:30;39.13;;;34.67;;
2019;SDS011;1014;51.960;8.542;2023-01-29T12:31:59;42.30;;;35.35;;
2019;SDS011;1014;51.960;8.542;2023-01-29T12:34:32;43.75;;;38.88;;
2019;SDS011;1014;51.960;8.542;2023-01-29T12:37:03;32.38;;;29.63;;
2019;SDS011;1014;51.960;8.542;2023-01-29T12:39:32;38.45;;;34.45;;
2019;SDS011;1014;51.960;8.542;2023-01-29T12:42:00;37.58;;;33.58;;
2019;SDS011;1014;51.960;8.542;2023-01-29T12:44:29;43.20;;;37.35;;
2019;SDS011;1014;51.960;8.542;2023-01-29T12:46:58;40.92;;;36.67;;
2019;SDS011;1014;51.960;8.542;2023-01-29T12:49:26;32.33;;;29.08;;
2019;SDS011;1014;51.960;8.542;2023-01-29T12:51:56;37.55;;;32.33;;
2019;SDS011;1014;51.960;8.542;2023-01-29T12:54:30;33.10;;;30.02;;
2019;SDS011;1014;51.960;8.542;2023-01-29T12:56:58;37.50;;;31.75;;
2019;SDS011;1014;51.960;8.542;2023-01-29T12:59:27;44.05;;;37.42;;
2019;SDS011;1014;51.960;8.542;2023-01-29T13:01:57;40.78;;;36.63;;
2019;SDS011;1014;51.960;8.542;2023-01-29T13:04:29;43.78;;;36.20;;
2019;SDS011;1014;51.960;8.542;2023-01-29T13:07:01;39.47;;;35.53;;
2019;SDS011;1014;51.960;8.542;2023-01-29T13:09:31;38.00;;;34.03;;
2019;SDS011;1014;51.960;8.542;2023-01-29T13:11:59;44.10;;;35.83;;
2019;SDS011;1014;51.960;8.542;2023-01-29T13:14:30;44.20;;;37.33;;
2019;SDS011;1014;51.960;8.542;2023-01-29T13:17:01;47.08;;;38.65;;
2019;SDS011;1014;51.960;8.542;2023-01-29T13:19:32;38.13;;;34.42;;
2019;SDS011;1014;51.960;8.542;2023-01-29T13:22:02;51.95;;;41.75;;
2019;SDS011;1014;51.960;8.542;2023-01-29T13:24:32;44.78;;;39.10;;
2019;SDS011;1014;51.960;8.542;2023-01-29T13:27:01;47.13;;;39.25;;
2019;SDS011;1014;51.960;8.542;2023-01-29T13:29:29;43.53;;;37.42;;
2019;SDS011;1014;51.960;8.542;2023-01-29T13:31:56;53.80;;;40.15;;
2019;SDS011;1014;51.960;8.542;2023-01-29T13:34:25;43.50;;;38.90;;
2019;SDS011;1014;51.960;8.542;2023-01-29T13:36:53;43.92;;;39.10;;
2019;SDS011;1014;51.960;8.542;2023-01-29T13:39:24;28.75;;;26.10;;
2019;SDS011;1014;51.960;8.542;2023-01-29T13:41:52;34.63;;;31.50;;
2019;SDS011;1014;51.960;8.542;2023-01-29T13:44:21;44.10;;;37.60;;
2019;SDS011;1014;51.960;8.542;2023-01-29T13:46:50;44.25;;;38.00;;
2019;SDS011;1014;51.960;8.542;2023-01-29T13:49:27;51.10;;;40.70;;
2019;SDS011;1014;51.960;8.542;2023-01-29T13:51:55;40.35;;;35.80;;
2019;SDS011;1014;51.960;8.542;2023-01-29T13:54:24;39.63;;;35.53;;
2019;SDS011;1014;51.960;8.542;2023-01-29T13:56:57;37.83;;;33.97;;
2019;SDS011;1014;51.960;8.542;2023-01-29T14:02:20;32.88;;;29.90;;
2019;SDS011;1014;51.960;8.542;2023-01-29T14:04:47;42.33;;;36.50;;
2019;SDS011;1014;51.960;8.542;2023-01-29T14:10:08;37.55;;;33.45;;
2019;SDS011;1014;51.960;8.542;2023-01-29T14:12:39;51.00;;;41.25;;
2019;SDS011;1014;51.960;8.542;2023-01-29T14:15:13;39.67;;;35.45;;
2019;SDS011;1014;51.960;8.542;2023-01-29T14:17:52;44.50;;;38.17;;
2019;SDS011;1014;51.960;8.542;2023-01-29T14:20:22;40.60;;;36.17;;
2019;SDS011;1014;51.960;8.542;2023-01-29T14:22:52;39.58;;;34.40;;
2019;SDS011;1014;51.960;8.542;2023-01-29T14:25:21;47.10;;;38.45;;
2019;SDS011;1014;51.960;8.542;2023-01-29T14:27:53;42.90;;;36.22;;
2019;SDS011;1014;51.960;8.542;2023-01-29T14:30:20;46.78;;;38.58;;
2019;SDS011;1014;51.960;8.542;2023-01-29T14:32:48;48.17;;;40.58;;
2019;SDS011;1014;51.960;8.542;2023-01-29T14:35:16;38.10;;;34.30;;
2019;SDS011;1014;51.960;8.542;2023-01-29T14:37:44;47.55;;;39.00;;
2019;SDS011;1014;51.960;8.542;2023-01-29T14:40:14;41.50;;;36.92;;
2019;SDS011;1014;51.960;8.542;2023-01-29T14:42:48;47.45;;;40.25;;
2019;SDS011;1014;51.960;8.542;2023-01-29T14:45:22;32.45;;;29.73;;
2019;SDS011;1014;51.960;8.542;2023-01-29T14:47:57;39.88;;;35.92;;
2019;SDS011;1014;51.960;8.542;2023-01-29T14:50:38;42.42;;;35.83;;
2019;SDS011;1014;51.960;8.542;2023-01-29T14:53:08;35.88;;;32.17;;
2019;SDS011;1014;51.960;8.542;2023-01-29T14:55:36;29.95;;;27.35;;
2019;SDS011;1014;51.960;8.542;2023-01-29T14:58:08;31.98;;;28.75;;
2019;SDS011;1014;51.960;8.542;2023-01-29T15:00:37;44.97;;;40.08;;
2019;SDS011;1014;51.960;8.542;2023-01-29T15:03:11;51.45;;;42.70;;
2019;SDS011;1014;51.960;8.542;2023-01-29T15:05:38;38.88;;;34.72;;
2019;SDS011;1014;51.960;8.542;2023-01-29T15:08:07;36.85;;;32.95;;
2019;SDS011;1014;51.960;8.542;2023-01-29T15:10:36;41.10;;;35.38;;